createdAt,value
2022-09-23T00:01:12.845Z,71.97
2022-09-23T00:03:42.792Z,72.26
2022-09-23T00:06:12.368Z,72.12
2022-09-23T00:08:41.906Z,72.04
2022-09-23T00:11:10.765Z,71.90
2022-09-23T00:13:39.389Z,71.87
2022-09-23T00:16:08.146Z,72.06
2022-09-23T00:18:36.182Z,72.48
2022-09-23T00:21:05.597Z,72.33
2022-09-23T00:23:33.829Z,72.22
2022-09-23T00:26:04.192Z,72.26
2022-09-23T00:28:33.204Z,72.10
2022-09-23T00:31:03.412Z,72.12
2022-09-23T00:33:31.428Z,72.03
2022-09-23T00:36:00.250Z,71.73
2022-09-23T00:38:28.218Z,71.71
2022-09-23T00:40:56.261Z,71.55
2022-09-23T00:43:39.303Z,71.31
2022-09-23T00:46:08.535Z,71.30
2022-09-23T00:48:36.947Z,71.12
2022-09-23T00:51:06.619Z,71.17
2022-09-23T00:53:34.677Z,70.88
2022-09-23T00:56:04.083Z,70.82
2022-09-23T00:58:34.052Z,70.61
2022-09-23T01:01:03.949Z,70.53
2022-09-23T01:03:32.282Z,70.51
2022-09-23T01:06:00.608Z,70.45
2022-09-23T01:08:29.237Z,70.50
2022-09-23T01:11:01.729Z,70.54
2022-09-23T01:13:33.573Z,70.45
2022-09-23T01:16:07.047Z,70.42
2022-09-23T01:18:40.172Z,70.39
2022-09-23T01:21:17.248Z,70.27
2022-09-23T01:24:03.656Z,70.15
2022-09-23T01:26:46.481Z,70.32
2022-09-23T01:29:28.690Z,70.25
2022-09-23T01:32:03.088Z,70.09
2022-09-23T01:34:35.535Z,70.22
2022-09-23T01:37:08.761Z,70.11
2022-09-23T01:39:40.034Z,70.34
2022-09-23T01:42:10.389Z,70.54
2022-09-23T01:44:43.120Z,70.29
2022-09-23T01:47:16.416Z,70.48
2022-09-23T01:49:47.410Z,70.28
2022-09-23T01:52:17.933Z,70.02
2022-09-23T01:54:47.985Z,70.32
2022-09-23T01:57:19.030Z,70.20
2022-09-23T01:59:49.985Z,70.27
2022-09-23T02:02:22.282Z,70.13
2022-09-23T02:04:54.371Z,70.13
2022-09-23T02:07:26.333Z,70.28
2022-09-23T02:09:59.789Z,70.20
2022-09-23T02:12:30.513Z,70.43
2022-09-23T02:15:01.016Z,70.27
2022-09-23T02:17:33.061Z,70.27
2022-09-23T02:20:02.838Z,70.04
2022-09-23T02:22:36.134Z,70.17
2022-09-23T02:25:04.787Z,70.06
2022-09-23T02:27:36.510Z,70.10
2022-09-23T02:30:09.682Z,70.17
2022-09-23T02:32:45.238Z,70.13
2022-09-23T02:35:18.117Z,69.98
2022-09-23T02:37:48.945Z,70.16
2022-09-23T02:40:23.745Z,70.15
2022-09-23T02:42:57.477Z,70.10
2022-09-23T02:45:25.448Z,70.18
2022-09-23T02:47:58.249Z,70.21
2022-09-23T02:50:26.563Z,70.17
2022-09-23T02:52:54.466Z,70.07
2022-09-23T02:55:23.878Z,69.99
2022-09-23T02:57:53.608Z,70.13
2022-09-23T03:00:21.704Z,70.10
2022-09-23T03:03:02.181Z,70.20
2022-09-23T03:05:31.766Z,70.00
2022-09-23T03:08:08.084Z,69.90
2022-09-23T03:10:40.335Z,69.98
2022-09-23T03:13:14.373Z,69.95
2022-09-23T03:15:46.899Z,69.84
2022-09-23T03:18:18.700Z,69.69
2022-09-23T03:20:50.246Z,69.64
2022-09-23T03:23:20.722Z,69.64
2022-09-23T03:25:52.438Z,69.65
2022-09-23T03:28:22.185Z,69.58
2022-09-23T03:30:51.164Z,69.72
2022-09-23T03:33:26.778Z,69.70
2022-09-23T03:36:18.167Z,69.49
2022-09-23T03:38:46.893Z,69.58
2022-09-23T03:41:17.214Z,69.46
2022-09-23T03:43:45.560Z,69.40
2022-09-23T03:46:17.007Z,69.45
2022-09-23T03:48:46.586Z,69.29
2022-09-23T03:51:22.154Z,69.25
2022-09-23T03:53:50.078Z,69.12
2022-09-23T03:56:18.684Z,69.06
2022-09-23T03:58:47.097Z,69.08
2022-09-23T04:01:16.180Z,69.11
2022-09-23T04:03:44.340Z,69.13
2022-09-23T04:06:14.221Z,69.08
2022-09-23T04:08:42.311Z,69.13
2022-09-23T04:11:11.452Z,69.16
2022-09-23T04:13:39.595Z,69.10
2022-09-23T04:19:04.951Z,69.28
2022-09-23T04:21:35.161Z,69.09
2022-09-23T04:24:03.819Z,69.00
2022-09-23T04:26:31.854Z,68.72
2022-09-23T04:29:00.263Z,68.66
2022-09-23T04:31:29.048Z,68.55
2022-09-23T04:33:57.112Z,68.53
2022-09-23T04:36:25.335Z,68.15
2022-09-23T04:38:54.752Z,68.09
2022-09-23T04:41:22.866Z,67.93
2022-09-23T04:43:50.871Z,67.68
2022-09-23T04:46:18.925Z,66.94
2022-09-23T04:48:47.042Z,66.95
2022-09-23T04:51:15.832Z,66.22
2022-09-23T04:53:45.136Z,65.86
2022-09-23T04:56:15.707Z,65.64
2022-09-23T04:58:44.219Z,65.60
2022-09-23T05:01:13.931Z,65.45
2022-09-23T05:03:43.081Z,65.00
2022-09-23T05:06:13.926Z,64.81
2022-09-23T05:08:42.260Z,64.69
2022-09-23T05:11:10.252Z,64.78
2022-09-23T05:13:39.888Z,64.36
2022-09-23T05:16:09.368Z,64.21
2022-09-23T05:18:37.924Z,63.38
2022-09-23T05:21:06.458Z,63.07
2022-09-23T05:23:37.723Z,62.05
2022-09-23T05:26:07.317Z,61.40
2022-09-23T05:28:37.562Z,62.05
2022-09-23T05:31:08.535Z,60.81
2022-09-23T05:33:37.332Z,61.32
2022-09-23T05:36:11.185Z,60.42
2022-09-23T05:38:40.123Z,60.92
2022-09-23T05:41:09.379Z,60.79
2022-09-23T05:43:38.218Z,60.74
2022-09-23T05:46:09.283Z,60.61
2022-09-23T05:48:37.876Z,59.67
2022-09-23T05:51:14.227Z,59.41
2022-09-23T05:53:45.073Z,59.05
2022-09-23T05:56:13.636Z,59.10
2022-09-23T05:58:41.868Z,57.71
2022-09-23T06:01:14.827Z,58.01
2022-09-23T06:03:43.344Z,57.97
2022-09-23T06:06:14.676Z,57.03
2022-09-23T06:08:43.215Z,57.27
2022-09-23T06:11:12.542Z,57.41
2022-09-23T06:13:41.198Z,57.01
2022-09-23T06:16:10.460Z,56.81
2022-09-23T06:18:41.599Z,56.07
2022-09-23T06:21:10.065Z,55.04
2022-09-23T06:23:41.148Z,53.40
2022-09-23T06:26:11.362Z,54.29
2022-09-23T06:28:40.599Z,53.49
2022-09-23T06:31:13.309Z,53.24
2022-09-23T06:33:45.100Z,53.27
2022-09-23T06:36:22.814Z,53.48
2022-09-23T06:38:59.288Z,52.51
2022-09-23T06:41:27.403Z,52.64
2022-09-23T06:43:55.612Z,51.07
2022-09-23T06:46:23.803Z,51.81
2022-09-23T06:48:53.559Z,52.12
2022-09-23T06:51:21.928Z,51.88
2022-09-23T06:53:50.793Z,50.03
2022-09-23T06:56:20.015Z,51.78
2022-09-23T06:58:48.334Z,51.18
2022-09-23T07:01:17.400Z,51.74
2022-09-23T07:03:46.450Z,51.62
2022-09-23T07:06:16.191Z,51.41
2022-09-23T07:08:44.662Z,50.57
2022-09-23T07:11:13.614Z,51.56
2022-09-23T07:13:42.873Z,51.54
2022-09-23T07:16:11.956Z,52.16
2022-09-23T07:18:41.099Z,51.15
2022-09-23T07:21:11.587Z,52.00
2022-09-23T07:23:41.143Z,52.35
2022-09-23T07:26:09.371Z,52.28
2022-09-23T07:28:38.685Z,52.73
2022-09-23T07:31:08.300Z,52.70
2022-09-23T07:33:37.208Z,52.49
2022-09-23T07:36:06.356Z,52.44
2022-09-23T07:38:34.814Z,52.61
2022-09-23T07:41:05.634Z,52.86
2022-09-23T07:43:34.434Z,52.53
2022-09-23T07:46:03.990Z,52.63
2022-09-23T07:48:34.532Z,53.05
2022-09-23T07:51:07.495Z,53.77
2022-09-23T07:53:36.099Z,54.26
2022-09-23T07:56:07.038Z,55.38
2022-09-23T07:58:35.708Z,55.28
2022-09-23T08:01:06.012Z,55.27
2022-09-23T08:03:34.367Z,55.06
2022-09-23T08:06:06.659Z,55.04
2022-09-23T08:08:35.727Z,54.82
2022-09-23T08:11:06.492Z,54.61
2022-09-23T08:13:35.241Z,54.39
2022-09-23T08:16:03.823Z,53.95
2022-09-23T08:18:32.383Z,53.37
2022-09-23T08:21:01.136Z,52.89
2022-09-23T08:23:33.674Z,53.98
2022-09-23T08:26:02.781Z,54.08
2022-09-23T08:28:33.968Z,53.52
2022-09-23T08:31:02.488Z,53.42
2022-09-23T08:33:31.091Z,52.76
2022-09-23T08:36:01.087Z,52.57
2022-09-23T08:38:29.421Z,52.31
2022-09-23T08:41:05.862Z,51.55
2022-09-23T08:43:36.463Z,51.06
2022-09-23T08:46:06.040Z,50.85
2022-09-23T08:48:36.538Z,50.11
2022-09-23T08:51:06.997Z,49.36
2022-09-23T08:53:36.419Z,48.51
2022-09-23T08:56:07.355Z,49.02
2022-09-23T08:58:41.654Z,47.75
2022-09-23T09:01:15.215Z,48.61
2022-09-23T09:03:46.548Z,48.19
2022-09-23T09:06:18.991Z,49.06
2022-09-23T09:08:48.829Z,49.47
2022-09-23T09:11:19.486Z,49.22
2022-09-23T09:13:53.164Z,49.59
2022-09-23T09:16:55.427Z,49.82
2022-09-23T09:19:20.667Z,49.17
2022-09-23T09:21:49.423Z,49.47
2022-09-23T09:24:19.313Z,49.98
2022-09-23T09:26:47.687Z,49.73
2022-09-23T09:29:36.202Z,49.02
2022-09-23T09:32:15.008Z,48.93
2022-09-23T09:34:46.642Z,49.18
2022-09-23T09:37:17.207Z,49.57
2022-09-23T09:39:45.525Z,49.24
2022-09-23T09:42:19.333Z,49.28
2022-09-23T09:44:52.720Z,49.13
2022-09-23T09:47:29.884Z,48.72
2022-09-23T09:50:02.796Z,48.76
2022-09-23T09:52:32.108Z,47.86
2022-09-23T09:55:19.219Z,47.42
2022-09-23T09:57:50.076Z,47.63
2022-09-23T10:00:35.626Z,47.63
2022-09-23T10:03:05.231Z,47.24
2022-09-23T10:05:34.962Z,46.66
2022-09-23T10:08:22.639Z,46.89
2022-09-23T10:10:54.974Z,47.03
2022-09-23T10:13:24.543Z,47.29
2022-09-23T10:15:56.119Z,46.86
2022-09-23T10:18:28.212Z,47.15
2022-09-23T10:21:01.730Z,47.01
2022-09-23T10:23:33.583Z,47.40
2022-09-23T10:28:45.684Z,47.50
2022-09-23T10:31:16.302Z,47.40
2022-09-23T10:33:49.016Z,47.53
2022-09-23T10:36:18.092Z,47.37
2022-09-23T10:38:53.734Z,47.08
2022-09-23T10:41:43.643Z,46.16
2022-09-23T10:50:15.135Z,46.41
2022-09-23T10:52:50.457Z,46.05
2022-09-23T10:55:29.373Z,46.38
2022-09-23T10:58:17.633Z,47.07
2022-09-23T11:00:49.547Z,47.28
2022-09-23T11:03:34.218Z,47.25
2022-09-23T11:06:09.961Z,47.56
2022-09-23T11:08:48.296Z,47.92
2022-09-23T11:11:22.045Z,48.04
2022-09-23T11:14:04.452Z,48.30
2022-09-23T11:16:43.862Z,48.82
2022-09-23T11:19:22.375Z,49.69
2022-09-23T11:21:58.538Z,50.57
2022-09-23T11:24:50.322Z,50.39
2022-09-23T11:27:26.890Z,50.35
2022-09-23T11:30:01.015Z,50.11
2022-09-23T11:32:51.484Z,49.52
2022-09-23T11:35:21.605Z,48.71
2022-09-23T11:37:53.305Z,48.40
2022-09-23T11:40:23.960Z,47.81
2022-09-23T11:42:56.982Z,47.62
2022-09-23T11:45:29.333Z,47.91
2022-09-23T11:48:02.102Z,48.24
2022-09-23T11:50:36.607Z,48.67
2022-09-23T11:53:09.132Z,49.77
2022-09-23T11:55:55.234Z,49.93
2022-09-23T12:01:37.910Z,51.45
2022-09-23T12:04:19.162Z,51.63
2022-09-23T12:06:51.327Z,51.50
2022-09-23T12:09:40.912Z,51.82
2022-09-23T12:12:16.321Z,51.58
2022-09-23T12:14:52.328Z,51.33
2022-09-23T12:17:38.539Z,51.15
2022-09-23T12:20:16.116Z,50.47
2022-09-23T12:22:48.927Z,50.29
2022-09-23T12:25:31.890Z,49.42
2022-09-23T12:28:05.191Z,49.35
2022-09-23T12:30:35.641Z,48.99
2022-09-23T12:33:11.964Z,48.22
2022-09-23T12:35:42.778Z,46.41
2022-09-23T12:38:26.640Z,45.63
2022-09-23T12:40:56.391Z,45.93
2022-09-23T12:43:34.686Z,44.22
2022-09-23T12:46:20.266Z,44.06
2022-09-23T12:48:49.748Z,43.48
2022-09-23T12:51:19.638Z,43.64
2022-09-23T12:53:57.347Z,43.90
2022-09-23T12:56:31.268Z,43.92
2022-09-23T12:59:26.178Z,43.65
2022-09-23T13:02:00.758Z,42.84
2022-09-23T13:04:48.807Z,43.41
2022-09-23T13:07:19.034Z,43.05
2022-09-23T13:09:53.277Z,43.74
2022-09-23T13:12:26.808Z,44.33
2022-09-23T13:15:00.314Z,44.53
2022-09-23T13:17:43.747Z,44.86
2022-09-23T13:20:30.408Z,45.66
2022-09-23T13:23:36.667Z,46.39
2022-09-23T13:26:13.563Z,46.91
2022-09-23T13:28:45.742Z,47.35
2022-09-23T13:31:17.455Z,47.83
2022-09-23T13:33:51.130Z,47.96
2022-09-23T13:36:22.621Z,48.17
2022-09-23T13:38:52.816Z,48.18
2022-09-23T13:41:22.939Z,48.28
2022-09-23T13:51:30.102Z,49.56
2022-09-23T13:54:23.373Z,50.01
2022-09-23T14:00:15.022Z,50.98
2022-09-23T14:02:50.484Z,51.33
2022-09-23T14:05:27.262Z,51.49
2022-09-23T14:08:00.332Z,51.66
2022-09-23T14:10:31.397Z,52.01
2022-09-23T14:12:59.757Z,52.06
2022-09-23T14:15:28.279Z,52.46
2022-09-23T14:18:02.399Z,52.79
2022-09-23T14:20:31.068Z,52.67
2022-09-23T14:23:07.450Z,53.31
2022-09-23T14:25:38.294Z,54.05
2022-09-23T14:28:07.039Z,54.40
2022-09-23T14:30:35.978Z,54.58
2022-09-23T14:33:08.608Z,54.71
2022-09-23T14:35:42.622Z,55.27
2022-09-23T14:38:28.198Z,55.41
2022-09-23T14:41:13.177Z,55.72
2022-09-23T14:43:41.769Z,56.03
2022-09-23T14:46:17.772Z,55.86
2022-09-23T14:48:53.466Z,56.10
2022-09-23T14:51:22.044Z,55.93
2022-09-23T14:53:50.197Z,56.08
2022-09-23T14:56:21.360Z,56.85
2022-09-23T14:58:53.044Z,56.86
2022-09-23T15:01:29.589Z,57.25
2022-09-23T15:03:58.962Z,57.33
2022-09-23T15:06:27.559Z,57.58
2022-09-23T15:08:57.111Z,57.85
2022-09-23T15:11:26.765Z,57.72
2022-09-23T15:13:55.148Z,57.66
2022-09-23T15:16:26.305Z,58.14
2022-09-23T15:18:55.712Z,57.67
2022-09-23T15:21:25.019Z,58.16
2022-09-23T15:23:55.065Z,57.90
2022-09-23T15:26:24.892Z,58.14
2022-09-23T15:28:56.070Z,58.17
2022-09-23T15:31:26.727Z,58.95
2022-09-23T15:33:56.259Z,59.63
2022-09-23T15:36:25.995Z,59.76
2022-09-23T15:38:55.333Z,60.49
2022-09-23T15:41:24.646Z,60.82
2022-09-23T15:43:53.337Z,60.35
2022-09-23T15:46:24.214Z,60.88
2022-09-23T15:48:58.921Z,61.33
2022-09-23T15:51:28.220Z,61.11
2022-09-23T15:53:56.619Z,60.98
2022-09-23T15:56:25.204Z,61.11
2022-09-23T15:58:53.374Z,61.54
2022-09-23T16:01:26.802Z,61.50
2022-09-23T16:03:56.022Z,62.01
2022-09-23T16:06:24.451Z,61.75
2022-09-23T16:08:53.258Z,61.96
2022-09-23T16:11:22.843Z,62.56
2022-09-23T16:13:51.277Z,62.70
2022-09-23T16:16:21.366Z,62.83
2022-09-23T16:18:52.028Z,62.67
2022-09-23T16:21:21.263Z,62.77
2022-09-23T16:23:50.562Z,63.43
2022-09-23T16:26:20.468Z,63.37
2022-09-23T16:28:49.239Z,63.93
2022-09-23T16:31:35.220Z,63.92
2022-09-23T16:34:04.807Z,63.44
2022-09-23T16:36:34.259Z,63.74
2022-09-23T16:39:03.537Z,63.18
2022-09-23T16:41:33.336Z,63.62
2022-09-23T16:44:02.402Z,63.22
2022-09-23T16:46:31.679Z,63.91
2022-09-23T16:49:00.705Z,63.67
2022-09-23T16:51:31.836Z,64.43
2022-09-23T16:54:00.762Z,64.40
2022-09-23T16:56:29.789Z,64.38
2022-09-23T16:58:58.256Z,64.46
2022-09-23T17:01:44.741Z,65.18
2022-09-23T17:04:13.489Z,64.84
2022-09-23T17:06:45.265Z,64.79
2022-09-23T17:09:13.498Z,64.78
2022-09-23T17:11:43.745Z,64.86
2022-09-23T17:14:11.781Z,65.05
2022-09-23T17:16:40.241Z,64.98
2022-09-23T17:19:09.008Z,65.55
2022-09-23T17:21:37.307Z,65.19
2022-09-23T17:24:07.078Z,64.68
2022-09-23T17:26:35.256Z,65.00
2022-09-23T17:29:03.716Z,64.77
2022-09-23T17:31:31.744Z,64.30
2022-09-23T17:34:00.946Z,64.51
2022-09-23T17:36:29.280Z,65.20
2022-09-23T17:38:57.307Z,64.77
2022-09-23T17:41:28.343Z,65.05
2022-09-23T17:43:58.814Z,65.12
2022-09-23T17:46:29.466Z,65.81
2022-09-23T17:48:58.087Z,66.44
2022-09-23T17:51:26.365Z,65.81
2022-09-23T17:53:54.437Z,65.99
2022-09-23T17:56:23.525Z,65.49
2022-09-23T17:58:53.976Z,65.72
2022-09-23T18:01:23.350Z,65.80
2022-09-23T18:03:55.020Z,66.06
2022-09-23T18:06:24.626Z,65.74
2022-09-23T18:08:53.164Z,66.12
2022-09-23T18:11:21.868Z,66.04
2022-09-23T18:13:50.820Z,65.58
2022-09-23T18:16:21.139Z,65.67
2022-09-23T18:18:53.262Z,66.12
2022-09-23T18:21:21.628Z,66.11
2022-09-23T18:23:50.585Z,66.37
2022-09-23T18:26:19.822Z,66.52
2022-09-23T18:28:48.209Z,66.42
2022-09-23T18:31:17.471Z,66.65
2022-09-23T18:33:49.684Z,66.82
2022-09-23T18:36:17.960Z,67.54
2022-09-23T18:38:46.076Z,67.70
2022-09-23T18:41:14.056Z,67.89
2022-09-23T18:43:48.151Z,68.21
2022-09-23T18:46:19.329Z,68.25
2022-09-23T18:49:08.153Z,68.26
2022-09-23T18:51:38.931Z,68.23
2022-09-23T18:54:09.740Z,67.81
2022-09-23T18:56:42.786Z,68.01
2022-09-23T18:59:14.376Z,67.53
2022-09-23T19:01:50.510Z,68.07
2022-09-23T19:04:24.704Z,68.18
2022-09-23T19:06:54.011Z,67.93
2022-09-23T19:09:22.497Z,67.63
2022-09-23T19:11:54.196Z,68.09
2022-09-23T19:14:23.775Z,68.54
2022-09-23T19:16:52.222Z,68.52
2022-09-23T19:19:21.885Z,68.75
2022-09-23T19:21:50.498Z,68.60
2022-09-23T19:24:21.173Z,68.58
2022-09-23T19:26:50.589Z,68.83
2022-09-23T19:29:22.001Z,68.53
2022-09-23T19:31:51.356Z,68.79
2022-09-23T19:34:23.814Z,68.52
2022-09-23T19:36:54.802Z,68.25
2022-09-23T19:39:23.826Z,68.31
2022-09-23T19:41:52.660Z,68.42
2022-09-23T19:44:21.224Z,69.28
2022-09-23T19:46:55.308Z,69.07
2022-09-23T19:49:25.354Z,69.20
2022-09-23T19:52:06.726Z,69.18
2022-09-23T19:54:35.317Z,69.20
2022-09-23T19:57:03.888Z,69.22
2022-09-23T20:02:20.851Z,69.17
2022-09-23T20:04:51.595Z,68.99
2022-09-23T20:07:27.135Z,69.52
2022-09-23T20:09:55.979Z,69.47
2022-09-23T20:12:25.241Z,69.70
2022-09-23T20:14:53.624Z,70.43
2022-09-23T20:17:22.198Z,70.04
2022-09-23T20:19:51.170Z,70.47
2022-09-23T20:22:32.940Z,70.50
2022-09-23T20:25:03.190Z,69.87
2022-09-23T20:27:32.374Z,69.82
2022-09-23T20:30:00.937Z,70.36
2022-09-23T20:32:29.575Z,70.27
2022-09-23T20:34:58.503Z,70.69
2022-09-23T20:37:28.513Z,70.11
2022-09-23T20:40:03.059Z,70.02
2022-09-23T20:42:32.157Z,70.07
2022-09-23T20:45:00.889Z,70.08
2022-09-23T20:47:29.043Z,70.66
2022-09-23T20:49:57.573Z,70.65
2022-09-23T20:52:25.845Z,71.10
2022-09-23T20:54:55.296Z,71.00
2022-09-23T20:57:24.106Z,70.88
2022-09-23T20:59:52.440Z,70.69
2022-09-23T21:02:20.625Z,70.68
2022-09-23T21:04:49.723Z,70.76
2022-09-23T21:07:18.155Z,70.91
2022-09-23T21:09:46.757Z,70.78
2022-09-23T21:12:16.347Z,70.88
2022-09-23T21:14:44.735Z,70.77
2022-09-23T21:17:14.196Z,70.68
2022-09-23T21:19:42.369Z,70.60
2022-09-23T21:22:12.993Z,70.57
2022-09-23T21:25:21.431Z,71.09
2022-09-23T21:27:33.713Z,70.77
2022-09-23T21:30:02.009Z,70.77
2022-09-23T21:32:32.173Z,70.97
2022-09-23T21:35:00.236Z,70.73
2022-09-23T21:37:28.498Z,71.24
2022-09-23T21:40:10.357Z,71.07
2022-09-23T21:42:42.536Z,71.06
2022-09-23T21:45:11.225Z,70.94
2022-09-23T21:47:40.603Z,71.63
2022-09-23T21:50:09.326Z,72.00
2022-09-23T21:52:38.930Z,73.06
2022-09-23T21:55:07.757Z,73.42
2022-09-23T21:57:36.840Z,73.25
2022-09-23T22:00:07.271Z,74.20
2022-09-23T22:02:40.506Z,75.07
2022-09-23T22:05:09.387Z,75.42
2022-09-23T22:07:38.610Z,75.88
2022-09-23T22:10:07.285Z,76.00
2022-09-23T22:12:35.680Z,76.39
2022-09-23T22:15:04.285Z,78.30
2022-09-23T22:17:34.574Z,78.64
2022-09-23T22:20:03.386Z,78.27
2022-09-23T22:22:32.115Z,78.83
2022-09-23T22:25:00.962Z,78.98
2022-09-23T22:27:29.848Z,80.01
2022-09-23T22:30:15.408Z,80.37
2022-09-23T22:32:54.907Z,80.08
2022-09-23T22:35:23.683Z,80.76
2022-09-23T22:37:55.579Z,80.69
2022-09-23T22:40:25.873Z,80.84
2022-09-23T22:42:58.282Z,81.52
2022-09-23T22:45:26.605Z,81.13
2022-09-23T22:47:56.690Z,81.45
2022-09-23T22:50:27.036Z,81.67
2022-09-23T22:52:55.342Z,81.77
2022-09-23T22:55:24.659Z,82.13
2022-09-23T22:57:52.833Z,82.09
2022-09-23T23:00:21.873Z,82.58
2022-09-23T23:02:50.919Z,82.48
2022-09-23T23:05:24.713Z,82.75
2022-09-23T23:07:55.274Z,82.50
2022-09-23T23:10:25.381Z,82.43
2022-09-23T23:12:55.031Z,82.75
2022-09-23T23:15:23.557Z,82.44
2022-09-23T23:18:01.027Z,82.98
2022-09-23T23:20:31.214Z,83.01
2022-09-23T23:23:03.794Z,82.34
2022-09-23T23:25:32.530Z,83.22
2022-09-23T23:28:01.166Z,82.98
2022-09-23T23:30:29.836Z,83.21
2022-09-23T23:33:00.441Z,82.92
2022-09-23T23:35:30.400Z,82.95
2022-09-23T23:37:59.917Z,83.37
2022-09-23T23:40:28.174Z,83.61
2022-09-23T23:42:56.505Z,82.96
2022-09-23T23:45:24.574Z,83.20
2022-09-23T23:47:52.750Z,83.43
2022-09-23T23:50:21.181Z,83.23
2022-09-23T23:52:49.168Z,83.83
2022-09-23T23:55:18.907Z,84.25
2022-09-23T23:57:46.975Z,83.66
